sensor_id;sensor_type;location;lat;lon;timestamp;temperature;humidity
59572;DHT22;59406;45.602;11.904;2022-07-29T00:00:09;25.60;67.20
59572;DHT22;59406;45.602;11.904;2022-07-29T00:02:36;25.60;67.10
59572;DHT22;59406;45.602;11.904;2022-07-29T00:05:03;25.70;67.50
59572;DHT22;59406;45.602;11.904;2022-07-29T00:07:29;25.70;66.50
59572;DHT22;59406;45.602;11.904;2022-07-29T00:09:55;25.60;64.50
59572;DHT22;59406;45.602;11.904;2022-07-29T00:12:23;25.70;62.30
59572;DHT22;59406;45.602;11.904;2022-07-29T00:14:49;25.60;61.40
59572;DHT22;59406;45.602;11.904;2022-07-29T00:17:15;25.50;61.20
59572;DHT22;59406;45.602;11.904;2022-07-29T00:19:41;25.30;62.30
59572;DHT22;59406;45.602;11.904;2022-07-29T00:22:07;25.10;63.10
59572;DHT22;59406;45.602;11.904;2022-07-29T00:24:33;25.00;64.60
59572;DHT22;59406;45.602;11.904;2022-07-29T00:26:59;24.80;65.70
59572;DHT22;59406;45.602;11.904;2022-07-29T00:29:25;24.60;65.50
59572;DHT22;59406;45.602;11.904;2022-07-29T00:31:51;24.40;66.50
59572;DHT22;59406;45.602;11.904;2022-07-29T00:34:17;24.20;67.00
59572;DHT22;59406;45.602;11.904;2022-07-29T00:37:01;24.10;65.80
59572;DHT22;59406;45.602;11.904;2022-07-29T00:39:28;24.10;66.10
59572;DHT22;59406;45.602;11.904;2022-07-29T00:41:55;24.00;67.50
59572;DHT22;59406;45.602;11.904;2022-07-29T00:44:21;23.70;68.10
59572;DHT22;59406;45.602;11.904;2022-07-29T00:46:46;23.50;68.30
59572;DHT22;59406;45.602;11.904;2022-07-29T00:49:13;23.40;68.60
59572;DHT22;59406;45.602;11.904;2022-07-29T00:51:39;23.40;68.90
59572;DHT22;59406;45.602;11.904;2022-07-29T00:54:06;23.30;68.80
59572;DHT22;59406;45.602;11.904;2022-07-29T00:56:33;23.30;68.90
59572;DHT22;59406;45.602;11.904;2022-07-29T00:59:00;23.20;69.40
59572;DHT22;59406;45.602;11.904;2022-07-29T01:01:26;23.00;69.40
59572;DHT22;59406;45.602;11.904;2022-07-29T01:03:54;23.10;69.10
59572;DHT22;59406;45.602;11.904;2022-07-29T01:06:20;23.20;68.80
59572;DHT22;59406;45.602;11.904;2022-07-29T01:08:47;23.20;68.80
59572;DHT22;59406;45.602;11.904;2022-07-29T01:11:16;23.30;69.30
59572;DHT22;59406;45.602;11.904;2022-07-29T01:13:44;23.20;69.40
59572;DHT22;59406;45.602;11.904;2022-07-29T01:16:23;23.20;69.70
59572;DHT22;59406;45.602;11.904;2022-07-29T01:18:56;23.20;70.30
59572;DHT22;59406;45.602;11.904;2022-07-29T01:30:20;23.10;71.40
59572;DHT22;59406;45.602;11.904;2022-07-29T01:32:50;23.10;71.20
59572;DHT22;59406;45.602;11.904;2022-07-29T01:35:34;23.10;71.40
59572;DHT22;59406;45.602;11.904;2022-07-29T01:38:10;23.00;72.50
59572;DHT22;59406;45.602;11.904;2022-07-29T01:40:51;22.90;72.50
59572;DHT22;59406;45.602;11.904;2022-07-29T01:43:29;22.90;72.90
59572;DHT22;59406;45.602;11.904;2022-07-29T01:46:00;22.90;72.40
59572;DHT22;59406;45.602;11.904;2022-07-29T01:48:47;22.90;72.00
59572;DHT22;59406;45.602;11.904;2022-07-29T01:51:18;23.00;72.60
59572;DHT22;59406;45.602;11.904;2022-07-29T01:54:16;22.90;72.00
59572;DHT22;59406;45.602;11.904;2022-07-29T01:56:44;23.00;72.20
59572;DHT22;59406;45.602;11.904;2022-07-29T01:59:11;22.90;72.40
59572;DHT22;59406;45.602;11.904;2022-07-29T02:01:39;22.90;72.30
59572;DHT22;59406;45.602;11.904;2022-07-29T02:04:09;22.80;72.10
59572;DHT22;59406;45.602;11.904;2022-07-29T02:06:38;22.90;72.30
59572;DHT22;59406;45.602;11.904;2022-07-29T02:09:04;22.80;72.80
59572;DHT22;59406;45.602;11.904;2022-07-29T02:11:33;22.80;73.10
59572;DHT22;59406;45.602;11.904;2022-07-29T02:14:02;22.60;72.80
59572;DHT22;59406;45.602;11.904;2022-07-29T02:16:31;22.70;72.90
59572;DHT22;59406;45.602;11.904;2022-07-29T02:19:00;22.70;72.80
59572;DHT22;59406;45.602;11.904;2022-07-29T02:21:27;22.70;72.80
59572;DHT22;59406;45.602;11.904;2022-07-29T02:23:56;22.60;72.40
59572;DHT22;59406;45.602;11.904;2022-07-29T02:26:26;22.60;72.00
59572;DHT22;59406;45.602;11.904;2022-07-29T02:28:55;22.70;71.70
59572;DHT22;59406;45.602;11.904;2022-07-29T02:31:24;22.60;71.60
59572;DHT22;59406;45.602;11.904;2022-07-29T02:33:52;22.70;71.20
59572;DHT22;59406;45.602;11.904;2022-07-29T02:36:21;22.70;71.40
59572;DHT22;59406;45.602;11.904;2022-07-29T02:38:48;22.60;71.00
59572;DHT22;59406;45.602;11.904;2022-07-29T02:41:40;22.60;70.80
59572;DHT22;59406;45.602;11.904;2022-07-29T02:44:14;22.60;70.80
59572;DHT22;59406;45.602;11.904;2022-07-29T02:46:56;22.60;70.80
59572;DHT22;59406;45.602;11.904;2022-07-29T02:49:58;22.60;71.00
59572;DHT22;59406;45.602;11.904;2022-07-29T02:52:40;22.60;71.20
59572;DHT22;59406;45.602;11.904;2022-07-29T02:55:18;22.60;71.00
59572;DHT22;59406;45.602;11.904;2022-07-29T02:57:52;22.60;71.00
59572;DHT22;59406;45.602;11.904;2022-07-29T03:00:21;22.60;71.10
59572;DHT22;59406;45.602;11.904;2022-07-29T03:02:52;22.50;71.00
59572;DHT22;59406;45.602;11.904;2022-07-29T03:05:20;22.50;71.00
59572;DHT22;59406;45.602;11.904;2022-07-29T03:07:50;22.40;71.10
59572;DHT22;59406;45.602;11.904;2022-07-29T03:10:17;22.40;71.10
59572;DHT22;59406;45.602;11.904;2022-07-29T03:12:44;22.30;71.10
59572;DHT22;59406;45.602;11.904;2022-07-29T03:15:11;22.30;71.40
59572;DHT22;59406;45.602;11.904;2022-07-29T03:17:38;22.30;71.50
59572;DHT22;59406;45.602;11.904;2022-07-29T03:20:07;22.30;71.90
59572;DHT22;59406;45.602;11.904;2022-07-29T03:22:38;22.30;71.70
59572;DHT22;59406;45.602;11.904;2022-07-29T03:25:10;22.30;72.20
59572;DHT22;59406;45.602;11.904;2022-07-29T03:27:36;22.20;71.80
59572;DHT22;59406;45.602;11.904;2022-07-29T03:30:04;22.30;71.80
59572;DHT22;59406;45.602;11.904;2022-07-29T03:32:30;22.20;71.70
59572;DHT22;59406;45.602;11.904;2022-07-29T03:34:56;22.20;71.90
59572;DHT22;59406;45.602;11.904;2022-07-29T03:37:22;22.10;71.80
59572;DHT22;59406;45.602;11.904;2022-07-29T03:39:49;22.10;72.00
59572;DHT22;59406;45.602;11.904;2022-07-29T03:42:18;22.10;72.00
59572;DHT22;59406;45.602;11.904;2022-07-29T03:44:47;22.00;72.10
59572;DHT22;59406;45.602;11.904;2022-07-29T03:47:15;22.00;72.20
59572;DHT22;59406;45.602;11.904;2022-07-29T03:49:44;21.90;72.20
59572;DHT22;59406;45.602;11.904;2022-07-29T03:52:12;21.90;72.30
59572;DHT22;59406;45.602;11.904;2022-07-29T03:54:39;21.90;72.50
59572;DHT22;59406;45.602;11.904;2022-07-29T03:57:07;21.80;72.40
59572;DHT22;59406;45.602;11.904;2022-07-29T03:59:35;21.70;72.30
59572;DHT22;59406;45.602;11.904;2022-07-29T04:02:04;21.70;72.70
59572;DHT22;59406;45.602;11.904;2022-07-29T04:04:34;21.70;72.80
59572;DHT22;59406;45.602;11.904;2022-07-29T04:07:00;21.70;72.50
59572;DHT22;59406;45.602;11.904;2022-07-29T04:09:27;21.70;72.70
59572;DHT22;59406;45.602;11.904;2022-07-29T04:11:53;21.70;73.20
59572;DHT22;59406;45.602;11.904;2022-07-29T04:14:19;21.70;73.10
59572;DHT22;59406;45.602;11.904;2022-07-29T04:16:46;21.70;73.20
59572;DHT22;59406;45.602;11.904;2022-07-29T04:19:13;21.70;73.50
59572;DHT22;59406;45.602;11.904;2022-07-29T04:21:39;21.80;73.40
59572;DHT22;59406;45.602;11.904;2022-07-29T04:24:07;21.80;73.10
59572;DHT22;59406;45.602;11.904;2022-07-29T04:26:33;21.90;73.30
59572;DHT22;59406;45.602;11.904;2022-07-29T04:28:59;21.90;73.10
59572;DHT22;59406;45.602;11.904;2022-07-29T04:31:25;21.90;73.10
59572;DHT22;59406;45.602;11.904;2022-07-29T04:33:52;22.00;73.20
59572;DHT22;59406;45.602;11.904;2022-07-29T04:36:17;21.90;73.40
59572;DHT22;59406;45.602;11.904;2022-07-29T04:38:43;22.00;73.60
59572;DHT22;59406;45.602;11.904;2022-07-29T04:41:09;22.00;73.30
59572;DHT22;59406;45.602;11.904;2022-07-29T04:43:36;22.10;73.70
59572;DHT22;59406;45.602;11.904;2022-07-29T04:46:03;22.30;73.60
59572;DHT22;59406;45.602;11.904;2022-07-29T04:48:29;22.40;73.30
59572;DHT22;59406;45.602;11.904;2022-07-29T04:50:56;22.60;72.90
59572;DHT22;59406;45.602;11.904;2022-07-29T04:53:22;22.70;72.50
59572;DHT22;59406;45.602;11.904;2022-07-29T04:55:48;22.70;72.30
59572;DHT22;59406;45.602;11.904;2022-07-29T04:58:14;22.90;72.70
59572;DHT22;59406;45.602;11.904;2022-07-29T05:00:43;23.00;72.30
59572;DHT22;59406;45.602;11.904;2022-07-29T05:03:09;23.20;71.90
59572;DHT22;59406;45.602;11.904;2022-07-29T05:05:35;23.20;71.90
59572;DHT22;59406;45.602;11.904;2022-07-29T05:08:01;23.40;71.70
59572;DHT22;59406;45.602;11.904;2022-07-29T05:10:27;23.50;71.50
59572;DHT22;59406;45.602;11.904;2022-07-29T05:12:54;23.60;71.40
59572;DHT22;59406;45.602;11.904;2022-07-29T05:15:20;23.70;72.10
59572;DHT22;59406;45.602;11.904;2022-07-29T05:17:46;23.90;71.90
59572;DHT22;59406;45.602;11.904;2022-07-29T05:20:12;23.90;71.70
59572;DHT22;59406;45.602;11.904;2022-07-29T05:22:38;24.00;71.40
59572;DHT22;59406;45.602;11.904;2022-07-29T05:25:04;24.30;71.20
59572;DHT22;59406;45.602;11.904;2022-07-29T05:27:30;24.30;71.10
59572;DHT22;59406;45.602;11.904;2022-07-29T05:29:56;24.50;71.00
59572;DHT22;59406;45.602;11.904;2022-07-29T05:32:22;24.60;71.10
59572;DHT22;59406;45.602;11.904;2022-07-29T05:34:48;24.70;70.90
59572;DHT22;59406;45.602;11.904;2022-07-29T05:37:14;24.80;70.70
59572;DHT22;59406;45.602;11.904;2022-07-29T05:39:41;24.90;70.50
59572;DHT22;59406;45.602;11.904;2022-07-29T05:42:10;25.10;70.40
59572;DHT22;59406;45.602;11.904;2022-07-29T05:44:40;25.30;70.50
59572;DHT22;59406;45.602;11.904;2022-07-29T05:47:06;25.30;70.10
59572;DHT22;59406;45.602;11.904;2022-07-29T05:49:32;25.50;70.00
59572;DHT22;59406;45.602;11.904;2022-07-29T05:51:58;25.50;70.00
59572;DHT22;59406;45.602;11.904;2022-07-29T05:54:25;25.70;69.70
59572;DHT22;59406;45.602;11.904;2022-07-29T05:56:51;25.80;69.90
59572;DHT22;59406;45.602;11.904;2022-07-29T05:59:17;26.10;69.20
59572;DHT22;59406;45.602;11.904;2022-07-29T06:01:43;26.20;69.10
59572;DHT22;59406;45.602;11.904;2022-07-29T06:04:09;26.30;68.70
59572;DHT22;59406;45.602;11.904;2022-07-29T06:06:35;26.30;68.70
59572;DHT22;59406;45.602;11.904;2022-07-29T06:09:01;26.50;68.00
59572;DHT22;59406;45.602;11.904;2022-07-29T06:11:27;26.60;67.40
59572;DHT22;59406;45.602;11.904;2022-07-29T06:13:53;26.90;66.50
59572;DHT22;59406;45.602;11.904;2022-07-29T06:16:19;27.00;65.90
59572;DHT22;59406;45.602;11.904;2022-07-29T06:18:45;27.10;65.20
59572;DHT22;59406;45.602;11.904;2022-07-29T06:21:12;27.40;64.70
59572;DHT22;59406;45.602;11.904;2022-07-29T06:23:39;27.60;64.00
59572;DHT22;59406;45.602;11.904;2022-07-29T06:26:06;27.90;63.90
59572;DHT22;59406;45.602;11.904;2022-07-29T06:28:32;28.20;62.70
59572;DHT22;59406;45.602;11.904;2022-07-29T06:30:59;28.30;61.90
59572;DHT22;59406;45.602;11.904;2022-07-29T06:33:25;28.50;61.20
59572;DHT22;59406;45.602;11.904;2022-07-29T06:35:51;28.60;59.80
59572;DHT22;59406;45.602;11.904;2022-07-29T06:38:17;28.80;59.20
59572;DHT22;59406;45.602;11.904;2022-07-29T06:40:44;29.00;58.50
59572;DHT22;59406;45.602;11.904;2022-07-29T06:43:37;29.20;56.10
59572;DHT22;59406;45.602;11.904;2022-07-29T06:46:09;29.40;54.90
59572;DHT22;59406;45.602;11.904;2022-07-29T06:48:36;29.50;54.10
59572;DHT22;59406;45.602;11.904;2022-07-29T06:51:04;29.70;53.50
59572;DHT22;59406;45.602;11.904;2022-07-29T06:53:31;30.10;52.70
59572;DHT22;59406;45.602;11.904;2022-07-29T06:55:58;30.30;51.40
59572;DHT22;59406;45.602;11.904;2022-07-29T06:58:28;30.70;51.10
59572;DHT22;59406;45.602;11.904;2022-07-29T07:00:56;30.80;51.70
59572;DHT22;59406;45.602;11.904;2022-07-29T07:03:23;31.10;50.80
59572;DHT22;59406;45.602;11.904;2022-07-29T07:05:49;31.40;49.90
59572;DHT22;59406;45.602;11.904;2022-07-29T07:08:15;31.50;49.50
59572;DHT22;59406;45.602;11.904;2022-07-29T07:10:42;31.70;49.50
59572;DHT22;59406;45.602;11.904;2022-07-29T07:13:09;32.10;47.30
59572;DHT22;59406;45.602;11.904;2022-07-29T07:15:36;32.10;46.90
59572;DHT22;59406;45.602;11.904;2022-07-29T07:18:04;32.40;46.30
59572;DHT22;59406;45.602;11.904;2022-07-29T07:20:35;32.80;44.60
59572;DHT22;59406;45.602;11.904;2022-07-29T07:23:01;32.80;45.10
59572;DHT22;59406;45.602;11.904;2022-07-29T07:25:27;33.00;44.20
59572;DHT22;59406;45.602;11.904;2022-07-29T07:27:53;33.40;44.20
59572;DHT22;59406;45.602;11.904;2022-07-29T07:30:20;33.40;44.20
59572;DHT22;59406;45.602;11.904;2022-07-29T07:32:45;33.80;43.30
59572;DHT22;59406;45.602;11.904;2022-07-29T07:35:12;33.90;42.20
59572;DHT22;59406;45.602;11.904;2022-07-29T07:37:38;34.30;41.80
59572;DHT22;59406;45.602;11.904;2022-07-29T07:40:07;34.10;41.70
59572;DHT22;59406;45.602;11.904;2022-07-29T07:42:34;34.10;41.00
59572;DHT22;59406;45.602;11.904;2022-07-29T07:45:00;34.00;39.10
59572;DHT22;59406;45.602;11.904;2022-07-29T07:47:26;33.80;41.40
59572;DHT22;59406;45.602;11.904;2022-07-29T07:49:53;33.90;40.70
59572;DHT22;59406;45.602;11.904;2022-07-29T07:52:20;34.30;40.50
59572;DHT22;59406;45.602;11.904;2022-07-29T07:54:48;34.50;40.10
59572;DHT22;59406;45.602;11.904;2022-07-29T07:57:15;34.80;38.70
59572;DHT22;59406;45.602;11.904;2022-07-29T07:59:41;35.20;36.80
59572;DHT22;59406;45.602;11.904;2022-07-29T08:02:08;35.40;36.80
59572;DHT22;59406;45.602;11.904;2022-07-29T08:04:35;35.70;36.50
59572;DHT22;59406;45.602;11.904;2022-07-29T08:07:01;35.80;36.30
59572;DHT22;59406;45.602;11.904;2022-07-29T08:09:30;36.30;34.70
59572;DHT22;59406;45.602;11.904;2022-07-29T08:11:57;36.40;34.20
59572;DHT22;59406;45.602;11.904;2022-07-29T08:14:24;37.20;34.80
59572;DHT22;59406;45.602;11.904;2022-07-29T08:16:50;37.80;32.40
59572;DHT22;59406;45.602;11.904;2022-07-29T08:19:16;37.90;31.60
59572;DHT22;59406;45.602;11.904;2022-07-29T08:21:42;37.70;31.40
59572;DHT22;59406;45.602;11.904;2022-07-29T08:24:09;38.10;31.20
59572;DHT22;59406;45.602;11.904;2022-07-29T08:26:53;38.20;30.60
59572;DHT22;59406;45.602;11.904;2022-07-29T08:29:19;37.80;31.00
59572;DHT22;59406;45.602;11.904;2022-07-29T08:31:45;37.60;30.50
59572;DHT22;59406;45.602;11.904;2022-07-29T08:34:11;38.40;29.90
59572;DHT22;59406;45.602;11.904;2022-07-29T08:36:37;38.20;29.80
59572;DHT22;59406;45.602;11.904;2022-07-29T08:39:04;38.40;29.70
59572;DHT22;59406;45.602;11.904;2022-07-29T08:41:30;38.30;29.60
59572;DHT22;59406;45.602;11.904;2022-07-29T08:43:57;38.40;28.50
59572;DHT22;59406;45.602;11.904;2022-07-29T08:46:23;38.20;29.90
59572;DHT22;59406;45.602;11.904;2022-07-29T08:48:49;38.10;29.40
59572;DHT22;59406;45.602;11.904;2022-07-29T08:51:19;38.30;29.50
59572;DHT22;59406;45.602;11.904;2022-07-29T08:53:47;38.10;28.90
59572;DHT22;59406;45.602;11.904;2022-07-29T08:56:17;37.90;29.40
59572;DHT22;59406;45.602;11.904;2022-07-29T08:58:45;37.90;30.10
59572;DHT22;59406;45.602;11.904;2022-07-29T09:01:16;38.10;29.30
59572;DHT22;59406;45.602;11.904;2022-07-29T09:03:44;37.90;29.10
59572;DHT22;59406;45.602;11.904;2022-07-29T09:06:17;37.60;29.00
59572;DHT22;59406;45.602;11.904;2022-07-29T09:08:44;38.50;28.00
59572;DHT22;59406;45.602;11.904;2022-07-29T09:11:11;38.10;28.40
59572;DHT22;59406;45.602;11.904;2022-07-29T09:13:37;38.80;28.10
59572;DHT22;59406;45.602;11.904;2022-07-29T09:16:03;40.20;26.60
59572;DHT22;59406;45.602;11.904;2022-07-29T09:18:38;40.30;25.90
59572;DHT22;59406;45.602;11.904;2022-07-29T09:21:10;40.90;25.10
59572;DHT22;59406;45.602;11.904;2022-07-29T09:26:38;41.30;23.50
59572;DHT22;59406;45.602;11.904;2022-07-29T09:29:23;42.40;23.40
59572;DHT22;59406;45.602;11.904;2022-07-29T09:31:52;42.40;22.40
59572;DHT22;59406;45.602;11.904;2022-07-29T09:34:28;42.30;22.80
59572;DHT22;59406;45.602;11.904;2022-07-29T09:36:57;0.20;0.20
59572;DHT22;59406;45.602;11.904;2022-07-29T09:39:28;0.20;0.20
59572;DHT22;59406;45.602;11.904;2022-07-29T09:41:57;0.20;0.20
59572;DHT22;59406;45.602;11.904;2022-07-29T09:44:24;0.20;0.20
59572;DHT22;59406;45.602;11.904;2022-07-29T09:46:58;0.20;0.20
59572;DHT22;59406;45.602;11.904;2022-07-29T09:49:35;41.60;21.20
59572;DHT22;59406;45.602;11.904;2022-07-29T09:52:07;40.60;21.70
59572;DHT22;59406;45.602;11.904;2022-07-29T09:54:35;40.50;21.50
59572;DHT22;59406;45.602;11.904;2022-07-29T09:57:06;41.30;20.80
59572;DHT22;59406;45.602;11.904;2022-07-29T09:59:34;41.90;20.90
59572;DHT22;59406;45.602;11.904;2022-07-29T10:02:01;42.20;20.90
59572;DHT22;59406;45.602;11.904;2022-07-29T10:04:38;0.20;0.20
59572;DHT22;59406;45.602;11.904;2022-07-29T10:07:05;0.20;0.20
59572;DHT22;59406;45.602;11.904;2022-07-29T10:09:32;0.20;0.20
59572;DHT22;59406;45.602;11.904;2022-07-29T10:14:30;0.20;0.20
59572;DHT22;59406;45.602;11.904;2022-07-29T10:16:58;0.20;0.20
59572;DHT22;59406;45.602;11.904;2022-07-29T10:19:25;0.20;0.20
59572;DHT22;59406;45.602;11.904;2022-07-29T10:21:52;0.20;0.20
59572;DHT22;59406;45.602;11.904;2022-07-29T10:24:18;0.20;0.20
59572;DHT22;59406;45.602;11.904;2022-07-29T10:26:45;0.20;0.20
59572;DHT22;59406;45.602;11.904;2022-07-29T10:29:12;0.20;0.20
59572;DHT22;59406;45.602;11.904;2022-07-29T10:31:57;0.20;0.20
59572;DHT22;59406;45.602;11.904;2022-07-29T10:39:40;0.20;0.20
59572;DHT22;59406;45.602;11.904;2022-07-29T10:44:40;0.20;0.20
59572;DHT22;59406;45.602;11.904;2022-07-29T10:47:07;0.20;0.20
59572;DHT22;59406;45.602;11.904;2022-07-29T10:49:33;0.20;0.20
59572;DHT22;59406;45.602;11.904;2022-07-29T10:57:29;0.20;0.20
59572;DHT22;59406;45.602;11.904;2022-07-29T11:05:03;0.20;0.20
59572;DHT22;59406;45.602;11.904;2022-07-29T11:07:29;0.20;0.20
59572;DHT22;59406;45.602;11.904;2022-07-29T11:15:20;0.20;0.20
59572;DHT22;59406;45.602;11.904;2022-07-29T11:23:00;0.20;0.20
59572;DHT22;59406;45.602;11.904;2022-07-29T11:25:27;0.20;0.20
59572;DHT22;59406;45.602;11.904;2022-07-29T11:27:54;0.20;0.20
59572;DHT22;59406;45.602;11.904;2022-07-29T11:31:03;0.20;0.20
59572;DHT22;59406;45.602;11.904;2022-07-29T11:33:32;0.20;0.20
59572;DHT22;59406;45.602;11.904;2022-07-29T11:38:35;0.20;0.20
59572;DHT22;59406;45.602;11.904;2022-07-29T11:41:22;0.20;0.20
59572;DHT22;59406;45.602;11.904;2022-07-29T11:43:57;0.20;0.20
59572;DHT22;59406;45.602;11.904;2022-07-29T11:46:48;0.20;0.20
59572;DHT22;59406;45.602;11.904;2022-07-29T11:49:26;0.20;0.20
59572;DHT22;59406;45.602;11.904;2022-07-29T11:51:53;0.20;0.20
59572;DHT22;59406;45.602;11.904;2022-07-29T11:54:30;0.20;0.20
59572;DHT22;59406;45.602;11.904;2022-07-29T11:56:58;0.20;0.20
59572;DHT22;59406;45.602;11.904;2022-07-29T11:59:24;0.20;0.20
59572;DHT22;59406;45.602;11.904;2022-07-29T12:01:54;0.20;0.20
59572;DHT22;59406;45.602;11.904;2022-07-29T12:04:20;0.20;0.20
59572;DHT22;59406;45.602;11.904;2022-07-29T12:06:54;0.20;0.20
59572;DHT22;59406;45.602;11.904;2022-07-29T12:09:21;0.20;0.20
59572;DHT22;59406;45.602;11.904;2022-07-29T12:11:48;0.20;0.20
59572;DHT22;59406;45.602;11.904;2022-07-29T12:14:31;0.20;0.20
59572;DHT22;59406;45.602;11.904;2022-07-29T12:16:58;0.20;0.20
59572;DHT22;59406;45.602;11.904;2022-07-29T12:19:26;0.20;0.20
59572;DHT22;59406;45.602;11.904;2022-07-29T12:21:54;0.20;0.20
59572;DHT22;59406;45.602;11.904;2022-07-29T12:24:21;0.20;0.20
59572;DHT22;59406;45.602;11.904;2022-07-29T12:26:57;0.20;0.20
59572;DHT22;59406;45.602;11.904;2022-07-29T12:29:25;0.20;0.20
59572;DHT22;59406;45.602;11.904;2022-07-29T12:31:54;0.20;0.20
59572;DHT22;59406;45.602;11.904;2022-07-29T12:34:23;0.20;0.20
59572;DHT22;59406;45.602;11.904;2022-07-29T12:36:50;0.20;0.20
59572;DHT22;59406;45.602;11.904;2022-07-29T12:39:16;0.20;0.20
59572;DHT22;59406;45.602;11.904;2022-07-29T12:41:43;0.20;0.20
59572;DHT22;59406;45.602;11.904;2022-07-29T12:44:10;0.20;0.20
59572;DHT22;59406;45.602;11.904;2022-07-29T12:46:36;0.20;0.20
59572;DHT22;59406;45.602;11.904;2022-07-29T12:49:03;0.20;0.20
59572;DHT22;59406;45.602;11.904;2022-07-29T12:51:30;0.20;0.20
59572;DHT22;59406;45.602;11.904;2022-07-29T12:54:14;0.20;0.20
59572;DHT22;59406;45.602;11.904;2022-07-29T12:56:42;0.20;0.20
59572;DHT22;59406;45.602;11.904;2022-07-29T12:59:14;0.20;0.20
59572;DHT22;59406;45.602;11.904;2022-07-29T13:01:42;0.20;0.20
59572;DHT22;59406;45.602;11.904;2022-07-29T13:04:08;0.20;0.20
59572;DHT22;59406;45.602;11.904;2022-07-29T13:11:42;0.20;0.20
59572;DHT22;59406;45.602;11.904;2022-07-29T13:14:31;0.20;0.20
59572;DHT22;59406;45.602;11.904;2022-07-29T13:17:09;0.20;0.20
59572;DHT22;59406;45.602;11.904;2022-07-29T13:19:43;0.20;0.20
59572;DHT22;59406;45.602;11.904;2022-07-29T13:22:17;0.20;0.20
59572;DHT22;59406;45.602;11.904;2022-07-29T13:24:58;0.20;0.20
59572;DHT22;59406;45.602;11.904;2022-07-29T13:27:29;0.20;0.20
59572;DHT22;59406;45.602;11.904;2022-07-29T13:29:58;0.20;0.20
59572;DHT22;59406;45.602;11.904;2022-07-29T13:32:27;0.20;0.20
59572;DHT22;59406;45.602;11.904;2022-07-29T13:34:54;0.20;0.20
59572;DHT22;59406;45.602;11.904;2022-07-29T13:37:20;0.20;0.20
59572;DHT22;59406;45.602;11.904;2022-07-29T13:39:46;0.20;0.20
59572;DHT22;59406;45.602;11.904;2022-07-29T13:42:13;0.20;0.20
59572;DHT22;59406;45.602;11.904;2022-07-29T13:44:39;0.20;0.20
59572;DHT22;59406;45.602;11.904;2022-07-29T13:47:06;0.20;0.20
59572;DHT22;59406;45.602;11.904;2022-07-29T13:49:34;0.20;0.20
59572;DHT22;59406;45.602;11.904;2022-07-29T13:52:00;0.20;0.20
59572;DHT22;59406;45.602;11.904;2022-07-29T13:54:26;0.20;0.20
59572;DHT22;59406;45.602;11.904;2022-07-29T13:56:52;0.20;0.20
59572;DHT22;59406;45.602;11.904;2022-07-29T13:59:18;0.20;0.20
59572;DHT22;59406;45.602;11.904;2022-07-29T14:01:44;0.20;0.20
59572;DHT22;59406;45.602;11.904;2022-07-29T14:04:11;0.20;0.20
59572;DHT22;59406;45.602;11.904;2022-07-29T14:06:37;0.20;0.20
59572;DHT22;59406;45.602;11.904;2022-07-29T14:09:03;0.20;0.20
59572;DHT22;59406;45.602;11.904;2022-07-29T14:11:34;0.20;0.20
59572;DHT22;59406;45.602;11.904;2022-07-29T14:14:01;0.20;0.20
59572;DHT22;59406;45.602;11.904;2022-07-29T14:16:27;0.20;0.20
59572;DHT22;59406;45.602;11.904;2022-07-29T14:18:52;0.20;0.20
59572;DHT22;59406;45.602;11.904;2022-07-29T14:21:18;0.20;0.20
59572;DHT22;59406;45.602;11.904;2022-07-29T14:23:44;0.20;0.20
59572;DHT22;59406;45.602;11.904;2022-07-29T14:26:10;0.20;0.20
59572;DHT22;59406;45.602;11.904;2022-07-29T14:28:36;0.20;0.20
59572;DHT22;59406;45.602;11.904;2022-07-29T14:31:03;0.20;0.20
59572;DHT22;59406;45.602;11.904;2022-07-29T14:33:29;0.20;0.20
59572;DHT22;59406;45.602;11.904;2022-07-29T14:35:55;0.20;0.20
59572;DHT22;59406;45.602;11.904;2022-07-29T14:38:20;0.20;0.20
59572;DHT22;59406;45.602;11.904;2022-07-29T14:40:46;0.20;0.20
59572;DHT22;59406;45.602;11.904;2022-07-29T14:43:13;0.20;0.20
59572;DHT22;59406;45.602;11.904;2022-07-29T14:45:40;0.20;0.20
59572;DHT22;59406;45.602;11.904;2022-07-29T14:48:06;0.20;0.20
59572;DHT22;59406;45.602;11.904;2022-07-29T14:50:33;0.20;0.20
59572;DHT22;59406;45.602;11.904;2022-07-29T14:52:59;0.20;0.20
59572;DHT22;59406;45.602;11.904;2022-07-29T14:55:26;0.20;0.20
59572;DHT22;59406;45.602;11.904;2022-07-29T14:57:52;0.20;0.20
59572;DHT22;59406;45.602;11.904;2022-07-29T15:00:19;0.20;0.20
59572;DHT22;59406;45.602;11.904;2022-07-29T15:02:47;0.20;0.20
59572;DHT22;59406;45.602;11.904;2022-07-29T15:05:13;41.90;14.00
59572;DHT22;59406;45.602;11.904;2022-07-29T15:07:39;42.10;14.10
59572;DHT22;59406;45.602;11.904;2022-07-29T15:10:06;41.40;15.40
59572;DHT22;59406;45.602;11.904;2022-07-29T15:12:32;41.10;16.30
59572;DHT22;59406;45.602;11.904;2022-07-29T15:14:58;40.70;17.00
59572;DHT22;59406;45.602;11.904;2022-07-29T15:17:24;39.80;17.70
59572;DHT22;59406;45.602;11.904;2022-07-29T15:19:51;38.80;19.50
59572;DHT22;59406;45.602;11.904;2022-07-29T15:22:17;38.00;21.00
59572;DHT22;59406;45.602;11.904;2022-07-29T15:24:44;37.70;21.40
59572;DHT22;59406;45.602;11.904;2022-07-29T15:27:10;37.40;21.80
59572;DHT22;59406;45.602;11.904;2022-07-29T15:29:43;36.80;22.80
59572;DHT22;59406;45.602;11.904;2022-07-29T15:32:09;37.30;22.40
59572;DHT22;59406;45.602;11.904;2022-07-29T15:34:36;37.10;22.60
59572;DHT22;59406;45.602;11.904;2022-07-29T15:37:02;36.40;23.30
59572;DHT22;59406;45.602;11.904;2022-07-29T15:39:28;36.00;24.30
59572;DHT22;59406;45.602;11.904;2022-07-29T15:41:54;35.60;24.80
59572;DHT22;59406;45.602;11.904;2022-07-29T15:44:20;35.60;24.70
59572;DHT22;59406;45.602;11.904;2022-07-29T15:46:47;35.60;24.40
59572;DHT22;59406;45.602;11.904;2022-07-29T15:49:29;35.50;24.90
59572;DHT22;59406;45.602;11.904;2022-07-29T15:52:00;35.40;25.00
59572;DHT22;59406;45.602;11.904;2022-07-29T15:54:27;35.20;25.90
59572;DHT22;59406;45.602;11.904;2022-07-29T15:56:53;35.00;26.50
59572;DHT22;59406;45.602;11.904;2022-07-29T15:59:21;34.90;26.60
59572;DHT22;59406;45.602;11.904;2022-07-29T16:01:47;34.50;26.50
59572;DHT22;59406;45.602;11.904;2022-07-29T16:04:13;34.50;26.90
59572;DHT22;59406;45.602;11.904;2022-07-29T16:06:40;34.40;26.80
59572;DHT22;59406;45.602;11.904;2022-07-29T16:09:06;34.60;26.20
59572;DHT22;59406;45.602;11.904;2022-07-29T16:11:32;34.90;26.10
59572;DHT22;59406;45.602;11.904;2022-07-29T16:13:58;34.90;25.60
59572;DHT22;59406;45.602;11.904;2022-07-29T16:16:24;34.80;25.70
59572;DHT22;59406;45.602;11.904;2022-07-29T16:18:50;34.90;25.60
59572;DHT22;59406;45.602;11.904;2022-07-29T16:21:16;34.60;25.90
59572;DHT22;59406;45.602;11.904;2022-07-29T16:23:42;34.70;25.80